sensor_id;sensor_type;location;lat;lon;timestamp;pressure;altitude;pressure_sealevel;temperature;humidity
5651;BME280;40241;52.684;9.758;2023-09-07T00:01:00;102031.00;;;21.00;55.53
5651;BME280;40241;52.684;9.758;2023-09-07T00:03:29;102027.53;;;20.93;55.44
5651;BME280;40241;52.684;9.758;2023-09-07T00:05:55;102029.13;;;20.89;55.60
5651;BME280;40241;52.684;9.758;2023-09-07T00:08:20;102029.66;;;20.87;55.62
5651;BME280;40241;52.684;9.758;2023-09-07T00:10:45;102023.84;;;20.85;55.67
5651;BME280;40241;52.684;9.758;2023-09-07T00:13:11;102025.66;;;20.83;55.57
5651;BME280;40241;52.684;9.758;2023-09-07T00:15:37;102021.34;;;20.82;55.71
5651;BME280;40241;52.684;9.758;2023-09-07T00:18:03;102016.81;;;20.79;55.74
5651;BME280;40241;52.684;9.758;2023-09-07T00:20:28;102019.91;;;20.75;55.71
5651;BME280;40241;52.684;9.758;2023-09-07T00:22:54;102018.19;;;20.72;55.74
5651;BME280;40241;52.684;9.758;2023-09-07T00:25:19;102013.41;;;20.67;56.02
5651;BME280;40241;52.684;9.758;2023-09-07T00:27:46;102017.50;;;20.66;55.79
5651;BME280;40241;52.684;9.758;2023-09-07T00:30:11;102019.56;;;20.66;55.86
5651;BME280;40241;52.684;9.758;2023-09-07T00:32:37;102021.06;;;20.67;55.98
5651;BME280;40241;52.684;9.758;2023-09-07T00:35:04;102021.59;;;20.65;56.00
5651;BME280;40241;52.684;9.758;2023-09-07T00:37:29;102012.97;;;20.63;55.89
5651;BME280;40241;52.684;9.758;2023-09-07T00:39:54;102022.41;;;20.60;55.89
5651;BME280;40241;52.684;9.758;2023-09-07T00:42:20;102013.13;;;20.52;55.97
5651;BME280;40241;52.684;9.758;2023-09-07T00:44:45;102019.25;;;20.51;55.91
5651;BME280;40241;52.684;9.758;2023-09-07T00:47:11;102015.47;;;20.48;56.03
5651;BME280;40241;52.684;9.758;2023-09-07T00:49:37;102012.44;;;20.46;55.99
5651;BME280;40241;52.684;9.758;2023-09-07T00:52:04;102008.13;;;20.45;55.90
5651;BME280;40241;52.684;9.758;2023-09-07T00:54:30;102008.00;;;20.38;55.98
5651;BME280;40241;52.684;9.758;2023-09-07T00:56:55;102004.94;;;20.36;56.22
5651;BME280;40241;52.684;9.758;2023-09-07T00:59:21;102012.66;;;20.30;56.07
5651;BME280;40241;52.684;9.758;2023-09-07T01:01:47;102007.81;;;20.30;56.21
5651;BME280;40241;52.684;9.758;2023-09-07T01:04:14;102012.44;;;20.28;56.04
5651;BME280;40241;52.684;9.758;2023-09-07T01:06:45;102013.50;;;20.25;56.57
5651;BME280;40241;52.684;9.758;2023-09-07T01:09:14;102002.59;;;20.21;56.37
5651;BME280;40241;52.684;9.758;2023-09-07T01:11:43;102011.78;;;20.16;56.27
5651;BME280;40241;52.684;9.758;2023-09-07T01:14:09;102005.28;;;20.08;56.61
5651;BME280;40241;52.684;9.758;2023-09-07T01:16:34;102008.16;;;20.02;56.66
5651;BME280;40241;52.684;9.758;2023-09-07T01:19:01;102016.81;;;19.99;56.76
5651;BME280;40241;52.684;9.758;2023-09-07T01:21:32;102013.78;;;19.97;56.68
5651;BME280;40241;52.684;9.758;2023-09-07T01:23:59;101995.53;;;19.96;56.66
5651;BME280;40241;52.684;9.758;2023-09-07T01:26:25;101994.31;;;19.91;56.74
5651;BME280;40241;52.684;9.758;2023-09-07T01:28:51;101999.88;;;19.91;56.88
5651;BME280;40241;52.684;9.758;2023-09-07T01:31:16;101992.00;;;19.90;56.70
5651;BME280;40241;52.684;9.758;2023-09-07T01:33:42;101999.88;;;19.91;56.78
5651;BME280;40241;52.684;9.758;2023-09-07T01:36:07;101991.50;;;19.91;56.83
5651;BME280;40241;52.684;9.758;2023-09-07T01:38:33;101997.09;;;19.91;57.07
5651;BME280;40241;52.684;9.758;2023-09-07T01:40:58;102001.38;;;19.92;57.06
5651;BME280;40241;52.684;9.758;2023-09-07T01:43:23;101995.06;;;19.92;57.09
5651;BME280;40241;52.684;9.758;2023-09-07T01:45:49;101996.34;;;19.91;56.78
5651;BME280;40241;52.684;9.758;2023-09-07T01:48:14;101997.59;;;19.90;56.81
5651;BME280;40241;52.684;9.758;2023-09-07T01:50:40;101996.88;;;19.89;56.69
5651;BME280;40241;52.684;9.758;2023-09-07T01:53:05;102001.47;;;19.87;56.79
5651;BME280;40241;52.684;9.758;2023-09-07T01:55:31;102006.59;;;19.83;56.97
5651;BME280;40241;52.684;9.758;2023-09-07T01:57:57;102001.56;;;19.76;56.74
5651;BME280;40241;52.684;9.758;2023-09-07T02:00:22;102000.59;;;19.73;56.81
5651;BME280;40241;52.684;9.758;2023-09-07T02:02:47;102005.72;;;19.69;56.98
5651;BME280;40241;52.684;9.758;2023-09-07T02:05:13;102000.94;;;19.64;56.94
5651;BME280;40241;52.684;9.758;2023-09-07T02:07:38;102005.53;;;19.62;57.00
5651;BME280;40241;52.684;9.758;2023-09-07T02:10:04;102013.66;;;19.60;57.14
5651;BME280;40241;52.684;9.758;2023-09-07T02:12:29;102011.69;;;19.55;56.92
5651;BME280;40241;52.684;9.758;2023-09-07T02:14:55;102005.63;;;19.51;57.22
5651;BME280;40241;52.684;9.758;2023-09-07T02:17:21;102006.16;;;19.49;57.35
5651;BME280;40241;52.684;9.758;2023-09-07T02:19:46;102008.72;;;19.47;57.20
5651;BME280;40241;52.684;9.758;2023-09-07T02:22:11;102011.34;;;19.39;57.12
5651;BME280;40241;52.684;9.758;2023-09-07T02:24:37;102012.38;;;19.36;57.26
5651;BME280;40241;52.684;9.758;2023-09-07T02:27:02;102009.88;;;19.27;57.51
5651;BME280;40241;52.684;9.758;2023-09-07T02:29:27;102002.28;;;19.28;57.37
5651;BME280;40241;52.684;9.758;2023-09-07T02:31:53;102012.44;;;19.25;57.56
5651;BME280;40241;52.684;9.758;2023-09-07T02:34:18;102010.91;;;19.24;57.43
5651;BME280;40241;52.684;9.758;2023-09-07T02:36:44;102014.03;;;19.15;57.75
5651;BME280;40241;52.684;9.758;2023-09-07T02:39:10;102012.28;;;19.12;57.55
5651;BME280;40241;52.684;9.758;2023-09-07T02:41:36;102008.72;;;19.12;57.55
5651;BME280;40241;52.684;9.758;2023-09-07T02:44:01;102009.03;;;19.08;57.87
5651;BME280;40241;52.684;9.758;2023-09-07T02:46:28;101999.38;;;19.09;57.92
5651;BME280;40241;52.684;9.758;2023-09-07T02:48:53;102006.47;;;19.10;57.70
5651;BME280;40241;52.684;9.758;2023-09-07T02:51:22;102007.72;;;19.09;57.77
5651;BME280;40241;52.684;9.758;2023-09-07T02:53:48;102011.28;;;19.10;57.77
5651;BME280;40241;52.684;9.758;2023-09-07T02:56:13;102018.66;;;19.07;57.94
5651;BME280;40241;52.684;9.758;2023-09-07T02:58:38;102017.88;;;19.07;57.75
5651;BME280;40241;52.684;9.758;2023-09-07T03:01:08;102020.69;;;19.07;58.02
5651;BME280;40241;52.684;9.758;2023-09-07T03:03:36;102019.72;;;19.04;57.82
5651;BME280;40241;52.684;9.758;2023-09-07T03:06:09;102014.41;;;19.01;58.08
5651;BME280;40241;52.684;9.758;2023-09-07T03:08:34;102012.91;;;18.94;57.86
5651;BME280;40241;52.684;9.758;2023-09-07T03:11:03;102019.03;;;18.93;58.04
5651;BME280;40241;52.684;9.758;2023-09-07T03:13:29;102018.25;;;18.92;57.94
5651;BME280;40241;52.684;9.758;2023-09-07T03:15:54;102015.75;;;18.89;57.95
5651;BME280;40241;52.684;9.758;2023-09-07T03:18:21;102018.06;;;18.85;58.04
5651;BME280;40241;52.684;9.758;2023-09-07T03:20:46;102013.00;;;18.83;58.04
5651;BME280;40241;52.684;9.758;2023-09-07T03:23:12;102008.22;;;18.78;58.09
5651;BME280;40241;52.684;9.758;2023-09-07T03:25:37;102020.66;;;18.77;58.11
5651;BME280;40241;52.684;9.758;2023-09-07T03:28:03;102024.44;;;18.74;58.24
5651;BME280;40241;52.684;9.758;2023-09-07T03:30:28;102014.34;;;18.71;58.36
5651;BME280;40241;52.684;9.758;2023-09-07T03:32:54;102016.91;;;18.69;58.37
5651;BME280;40241;52.684;9.758;2023-09-07T03:35:19;102015.38;;;18.68;58.42
5651;BME280;40241;52.684;9.758;2023-09-07T03:37:45;102012.59;;;18.68;58.13
5651;BME280;40241;52.684;9.758;2023-09-07T03:40:10;102013.09;;;18.66;58.19
5651;BME280;40241;52.684;9.758;2023-09-07T03:42:36;102008.31;;;18.61;58.41
5651;BME280;40241;52.684;9.758;2023-09-07T03:45:01;102007.56;;;18.61;58.28
5651;BME280;40241;52.684;9.758;2023-09-07T03:47:28;102006.06;;;18.60;58.35
5651;BME280;40241;52.684;9.758;2023-09-07T03:49:55;102010.09;;;18.59;58.29
5651;BME280;40241;52.684;9.758;2023-09-07T03:52:22;102017.22;;;18.54;58.24
5651;BME280;40241;52.684;9.758;2023-09-07T03:54:49;102011.41;;;18.52;58.30
5651;BME280;40241;52.684;9.758;2023-09-07T03:57:15;102014.94;;;18.53;58.38
5651;BME280;40241;52.684;9.758;2023-09-07T03:59:40;102015.22;;;18.49;58.40
5651;BME280;40241;52.684;9.758;2023-09-07T04:02:06;102020.81;;;18.49;58.56
5651;BME280;40241;52.684;9.758;2023-09-07T04:04:31;102022.59;;;18.47;58.58
5651;BME280;40241;52.684;9.758;2023-09-07T04:06:56;102021.31;;;18.48;58.53
5651;BME280;40241;52.684;9.758;2023-09-07T04:09:21;102013.72;;;18.48;58.59
5651;BME280;40241;52.684;9.758;2023-09-07T04:11:47;102020.31;;;18.45;58.48
5651;BME280;40241;52.684;9.758;2023-09-07T04:14:12;102014.22;;;18.41;58.36
5651;BME280;40241;52.684;9.758;2023-09-07T04:16:37;102021.59;;;18.39;58.65
5651;BME280;40241;52.684;9.758;2023-09-07T04:19:03;102024.13;;;18.37;58.54
5651;BME280;40241;52.684;9.758;2023-09-07T04:21:28;102023.13;;;18.34;58.65
5651;BME280;40241;52.684;9.758;2023-09-07T04:23:54;102022.38;;;18.34;58.64
5651;BME280;40241;52.684;9.758;2023-09-07T04:26:19;102016.28;;;18.35;58.75
5651;BME280;40241;52.684;9.758;2023-09-07T04:28:44;102023.13;;;18.34;58.55
5651;BME280;40241;52.684;9.758;2023-09-07T04:31:10;102023.38;;;18.31;58.51
5651;BME280;40241;52.684;9.758;2023-09-07T04:33:35;102027.47;;;18.30;58.91
5651;BME280;40241;52.684;9.758;2023-09-07T04:36:08;102029.47;;;18.29;59.10
5651;BME280;40241;52.684;9.758;2023-09-07T04:38:34;102024.19;;;18.26;58.96
5651;BME280;40241;52.684;9.758;2023-09-07T04:41:10;102033.03;;;18.24;59.16
5651;BME280;40241;52.684;9.758;2023-09-07T04:43:36;102029.25;;;18.22;58.81
5651;BME280;40241;52.684;9.758;2023-09-07T04:46:02;102035.09;;;18.24;58.90
5651;BME280;40241;52.684;9.758;2023-09-07T04:48:28;102036.09;;;18.21;58.95
5651;BME280;40241;52.684;9.758;2023-09-07T04:51:06;102041.44;;;18.19;59.44
5651;BME280;40241;52.684;9.758;2023-09-07T04:53:33;102043.72;;;18.15;59.01
5651;BME280;40241;52.684;9.758;2023-09-07T04:56:00;102035.38;;;18.15;59.16
5651;BME280;40241;52.684;9.758;2023-09-07T04:58:26;102040.19;;;18.14;59.04
5651;BME280;40241;52.684;9.758;2023-09-07T05:00:51;102046.25;;;18.13;59.21
5651;BME280;40241;52.684;9.758;2023-09-07T05:03:17;102044.72;;;18.12;59.21
5651;BME280;40241;52.684;9.758;2023-09-07T05:05:43;102053.09;;;18.12;59.27
5651;BME280;40241;52.684;9.758;2023-09-07T05:08:11;102054.63;;;18.13;59.22
5651;BME280;40241;52.684;9.758;2023-09-07T05:10:37;102044.50;;;18.10;59.24
5651;BME280;40241;52.684;9.758;2023-09-07T05:13:03;102038.91;;;18.10;59.36
5651;BME280;40241;52.684;9.758;2023-09-07T05:15:28;102049.81;;;18.08;59.34
5651;BME280;40241;52.684;9.758;2023-09-07T05:17:54;102050.34;;;18.06;59.31
5651;BME280;40241;52.684;9.758;2023-09-07T05:20:20;102039.94;;;18.07;59.31
5651;BME280;40241;52.684;9.758;2023-09-07T05:22:45;102051.06;;;18.07;59.35
5651;BME280;40241;52.684;9.758;2023-09-07T05:25:11;102044.75;;;18.06;59.46
5651;BME280;40241;52.684;9.758;2023-09-07T05:27:37;102045.00;;;18.08;59.47
5651;BME280;40241;52.684;9.758;2023-09-07T05:30:03;102046.03;;;18.11;59.61
5651;BME280;40241;52.684;9.758;2023-09-07T05:32:28;102045.75;;;18.14;59.44
5651;BME280;40241;52.684;9.758;2023-09-07T05:34:54;102045.50;;;18.12;59.53
5651;BME280;40241;52.684;9.758;2023-09-07T05:37:19;102048.28;;;18.12;59.67
5651;BME280;40241;52.684;9.758;2023-09-07T05:39:44;102051.59;;;18.11;59.62
5651;BME280;40241;52.684;9.758;2023-09-07T05:42:10;102051.59;;;18.11;59.64
5651;BME280;40241;52.684;9.758;2023-09-07T05:44:35;102045.75;;;18.14;59.76
5651;BME280;40241;52.684;9.758;2023-09-07T05:47:01;102049.28;;;18.15;59.55
5651;BME280;40241;52.684;9.758;2023-09-07T05:49:27;102052.81;;;18.15;59.80
5651;BME280;40241;52.684;9.758;2023-09-07T05:51:53;102053.56;;;18.16;59.71
5651;BME280;40241;52.684;9.758;2023-09-07T05:54:18;102054.59;;;18.18;59.73
5651;BME280;40241;52.684;9.758;2023-09-07T05:56:43;102054.84;;;18.20;59.88
5651;BME280;40241;52.684;9.758;2023-09-07T05:59:09;102058.63;;;18.23;59.97
5651;BME280;40241;52.684;9.758;2023-09-07T06:01:34;102065.72;;;18.24;59.97
5651;BME280;40241;52.684;9.758;2023-09-07T06:04:00;102068.25;;;18.27;60.02
5651;BME280;40241;52.684;9.758;2023-09-07T06:06:25;102068.72;;;18.31;60.12
5651;BME280;40241;52.684;9.758;2023-09-07T06:08:50;102063.66;;;18.35;60.08
5651;BME280;40241;52.684;9.758;2023-09-07T06:11:16;102066.91;;;18.39;60.12
5651;BME280;40241;52.684;9.758;2023-09-07T06:13:41;102068.16;;;18.44;60.40
5651;BME280;40241;52.684;9.758;2023-09-07T06:16:07;102082.13;;;18.49;60.26
5651;BME280;40241;52.684;9.758;2023-09-07T06:18:32;102072.22;;;18.54;60.35
5651;BME280;40241;52.684;9.758;2023-09-07T06:20:57;102073.47;;;18.58;60.36
5651;BME280;40241;52.684;9.758;2023-09-07T06:23:23;102066.59;;;18.65;60.37
5651;BME280;40241;52.684;9.758;2023-09-07T06:25:48;102076.16;;;18.75;60.36
5651;BME280;40241;52.684;9.758;2023-09-07T06:28:14;102071.31;;;18.81;60.22
5651;BME280;40241;52.684;9.758;2023-09-07T06:30:39;102072.03;;;18.87;60.30
5651;BME280;40241;52.684;9.758;2023-09-07T06:33:04;102072.03;;;18.93;60.58
5651;BME280;40241;52.684;9.758;2023-09-07T06:35:30;102069.94;;;18.99;60.47
5651;BME280;40241;52.684;9.758;2023-09-07T06:37:55;102077.00;;;19.05;60.58
5651;BME280;40241;52.684;9.758;2023-09-07T06:40:21;102068.84;;;19.13;60.59
5651;BME280;40241;52.684;9.758;2023-09-07T06:42:47;102064.75;;;19.19;60.42
5651;BME280;40241;52.684;9.758;2023-09-07T06:45:12;102073.31;;;19.27;60.50
5651;BME280;40241;52.684;9.758;2023-09-07T06:47:37;102079.13;;;19.34;60.35
5651;BME280;40241;52.684;9.758;2023-09-07T06:50:04;102075.00;;;19.41;60.59
5651;BME280;40241;52.684;9.758;2023-09-07T06:52:30;102083.78;;;19.51;60.44
5651;BME280;40241;52.684;9.758;2023-09-07T06:54:55;102074.59;;;19.61;60.56
5651;BME280;40241;52.684;9.758;2023-09-07T06:57:21;102082.09;;;19.72;60.50
5651;BME280;40241;52.684;9.758;2023-09-07T06:59:47;102070.59;;;19.81;60.39
5651;BME280;40241;52.684;9.758;2023-09-07T07:02:13;102076.81;;;19.92;60.45
5651;BME280;40241;52.684;9.758;2023-09-07T07:04:38;102079.50;;;20.03;60.31
5651;BME280;40241;52.684;9.758;2023-09-07T07:07:04;102075.09;;;20.13;60.36
5651;BME280;40241;52.684;9.758;2023-09-07T07:09:31;102088.22;;;20.24;60.27
5651;BME280;40241;52.684;9.758;2023-09-07T07:11:59;102083.97;;;20.36;60.10
5651;BME280;40241;52.684;9.758;2023-09-07T07:14:25;102087.72;;;20.44;60.25
5651;BME280;40241;52.684;9.758;2023-09-07T07:16:50;102083.03;;;20.52;59.97
5651;BME280;40241;52.684;9.758;2023-09-07T07:19:16;102081.59;;;20.64;59.92
5651;BME280;40241;52.684;9.758;2023-09-07T07:21:41;102090.38;;;20.74;60.06
5651;BME280;40241;52.684;9.758;2023-09-07T07:24:07;102086.22;;;20.80;60.02
5651;BME280;40241;52.684;9.758;2023-09-07T07:26:32;102088.41;;;20.87;60.06
5651;BME280;40241;52.684;9.758;2023-09-07T07:28:58;102092.03;;;21.01;60.03
5651;BME280;40241;52.684;9.758;2023-09-07T07:31:23;102086.84;;;21.11;59.96
5651;BME280;40241;52.684;9.758;2023-09-07T07:33:48;102085.69;;;21.19;59.81
5651;BME280;40241;52.684;9.758;2023-09-07T07:36:14;102087.53;;;21.30;59.69
5651;BME280;40241;52.684;9.758;2023-09-07T07:38:39;102089.66;;;21.42;59.48
5651;BME280;40241;52.684;9.758;2023-09-07T07:41:05;102098.63;;;21.54;59.62
5651;BME280;40241;52.684;9.758;2023-09-07T07:43:31;102092.06;;;21.64;59.38
5651;BME280;40241;52.684;9.758;2023-09-07T07:45:57;102094.16;;;21.77;59.33
5651;BME280;40241;52.684;9.758;2023-09-07T07:48:22;102094.50;;;21.87;59.28
5651;BME280;40241;52.684;9.758;2023-09-07T07:50:47;102102.72;;;21.98;59.28
5651;BME280;40241;52.684;9.758;2023-09-07T07:53:13;102100.25;;;22.07;59.08
5651;BME280;40241;52.684;9.758;2023-09-07T07:55:39;102100.81;;;22.19;59.17
5651;BME280;40241;52.684;9.758;2023-09-07T07:58:06;102104.13;;;22.30;58.87
5651;BME280;40241;52.684;9.758;2023-09-07T08:00:36;102099.81;;;22.43;58.55
5651;BME280;40241;52.684;9.758;2023-09-07T08:03:02;102097.53;;;22.54;58.54
5651;BME280;40241;52.684;9.758;2023-09-07T08:05:34;102105.63;;;22.71;58.35
5651;BME280;40241;52.684;9.758;2023-09-07T08:08:00;102097.75;;;22.82;58.32
5651;BME280;40241;52.684;9.758;2023-09-07T08:10:25;102091.66;;;22.91;58.15
5651;BME280;40241;52.684;9.758;2023-09-07T08:12:54;102092.38;;;23.05;57.85
5651;BME280;40241;52.684;9.758;2023-09-07T08:15:20;102094.34;;;23.18;57.60
5651;BME280;40241;52.684;9.758;2023-09-07T08:17:47;102090.97;;;23.32;57.35
5651;BME280;40241;52.684;9.758;2023-09-07T08:20:13;102090.38;;;23.47;57.14
5651;BME280;40241;52.684;9.758;2023-09-07T08:22:39;102085.44;;;23.60;56.99
5651;BME280;40241;52.684;9.758;2023-09-07T08:25:08;102083.50;;;23.76;57.03
5651;BME280;40241;52.684;9.758;2023-09-07T08:27:33;102089.22;;;23.91;56.71
5651;BME280;40241;52.684;9.758;2023-09-07T08:29:59;102076.59;;;24.05;56.66
5651;BME280;40241;52.684;9.758;2023-09-07T08:32:24;102088.69;;;24.21;55.85
5651;BME280;40241;52.684;9.758;2023-09-07T08:34:50;102090.09;;;24.35;55.55
5651;BME280;40241;52.684;9.758;2023-09-07T08:37:16;102077.59;;;24.51;54.88
5651;BME280;40241;52.684;9.758;2023-09-07T08:39:42;102081.97;;;24.67;54.71
5651;BME280;40241;52.684;9.758;2023-09-07T08:42:07;102090.50;;;24.82;54.13
5651;BME280;40241;52.684;9.758;2023-09-07T08:44:34;102092.78;;;24.99;54.32
5651;BME280;40241;52.684;9.758;2023-09-07T08:47:02;102091.53;;;25.15;53.89
5651;BME280;40241;52.684;9.758;2023-09-07T08:49:29;102082.31;;;25.29;53.68
5651;BME280;40241;52.684;9.758;2023-09-07T08:51:58;102086.13;;;25.47;53.61
5651;BME280;40241;52.684;9.758;2023-09-07T08:54:24;102081.25;;;25.63;53.32
5651;BME280;40241;52.684;9.758;2023-09-07T08:56:50;102080.13;;;25.81;53.71
5651;BME280;40241;52.684;9.758;2023-09-07T08:59:15;102084.22;;;25.95;53.23
5651;BME280;40241;52.684;9.758;2023-09-07T09:01:41;102084.22;;;26.02;53.02
5651;BME280;40241;52.684;9.758;2023-09-07T09:04:07;102084.59;;;26.14;52.81
5651;BME280;40241;52.684;9.758;2023-09-07T09:06:32;102079.28;;;26.26;52.15
5651;BME280;40241;52.684;9.758;2023-09-07T09:08:58;102082.81;;;26.41;51.92
5651;BME280;40241;52.684;9.758;2023-09-07T09:11:24;102080.84;;;26.59;51.49
5651;BME280;40241;52.684;9.758;2023-09-07T09:13:51;102077.44;;;26.76;51.00
5651;BME280;40241;52.684;9.758;2023-09-07T09:16:17;102086.97;;;26.88;51.27
5651;BME280;40241;52.684;9.758;2023-09-07T09:18:57;102081.22;;;27.03;51.01
5651;BME280;40241;52.684;9.758;2023-09-07T09:21:24;102084.00;;;27.10;50.77
5651;BME280;40241;52.684;9.758;2023-09-07T09:23:52;102089.44;;;27.16;50.26
5651;BME280;40241;52.684;9.758;2023-09-07T09:26:18;102086.16;;;27.27;49.37
5651;BME280;40241;52.684;9.758;2023-09-07T09:28:45;102080.66;;;27.36;49.60
5651;BME280;40241;52.684;9.758;2023-09-07T09:31:11;102079.44;;;27.47;49.29
5651;BME280;40241;52.684;9.758;2023-09-07T09:33:40;102092.34;;;27.58;49.24
5651;BME280;40241;52.684;9.758;2023-09-07T09:36:07;102079.06;;;27.68;49.13
5651;BME280;40241;52.684;9.758;2023-09-07T09:38:34;102076.66;;;27.81;48.87
5651;BME280;40241;52.684;9.758;2023-09-07T09:41:00;102087.16;;;27.88;48.55
5651;BME280;40241;52.684;9.758;2023-09-07T09:43:26;102078.59;;;27.96;48.04
5651;BME280;40241;52.684;9.758;2023-09-07T09:45:52;102074.03;;;28.00;47.67
5651;BME280;40241;52.684;9.758;2023-09-07T09:48:21;102077.97;;;28.05;47.01
5651;BME280;40241;52.684;9.758;2023-09-07T09:50:47;102085.63;;;28.12;46.80
5651;BME280;40241;52.684;9.758;2023-09-07T09:53:15;102078.53;;;28.20;46.98
5651;BME280;40241;52.684;9.758;2023-09-07T09:55:46;102070.38;;;28.25;46.67
5651;BME280;40241;52.684;9.758;2023-09-07T09:58:15;102075.81;;;28.30;46.37
5651;BME280;40241;52.684;9.758;2023-09-07T10:00:46;102061.22;;;28.34;46.04
5651;BME280;40241;52.684;9.758;2023-09-07T10:03:25;102055.47;;;28.41;44.32
5651;BME280;40241;52.684;9.758;2023-09-07T10:05:52;102054.88;;;28.43;46.19
5651;BME280;40241;52.684;9.758;2023-09-07T10:08:19;102062.69;;;28.52;46.04
5651;BME280;40241;52.684;9.758;2023-09-07T10:10:49;102064.88;;;28.61;44.66
5651;BME280;40241;52.684;9.758;2023-09-07T10:13:29;102048.34;;;28.67;44.42
5651;BME280;40241;52.684;9.758;2023-09-07T10:16:02;102046.91;;;28.75;44.56
5651;BME280;40241;52.684;9.758;2023-09-07T10:18:38;102047.97;;;28.80;45.36
5651;BME280;40241;52.684;9.758;2023-09-07T10:21:03;102044.13;;;28.85;44.82
5651;BME280;40241;52.684;9.758;2023-09-07T10:23:43;102034.44;;;28.88;43.97
5651;BME280;40241;52.684;9.758;2023-09-07T10:26:12;102041.63;;;28.89;44.47
5651;BME280;40241;52.684;9.758;2023-09-07T10:28:38;102034.94;;;28.94;44.92
5651;BME280;40241;52.684;9.758;2023-09-07T10:31:13;102051.06;;;29.01;43.56
5651;BME280;40241;52.684;9.758;2023-09-07T10:33:39;102040.22;;;29.07;44.17
5651;BME280;40241;52.684;9.758;2023-09-07T10:36:05;102039.03;;;29.10;43.86
5651;BME280;40241;52.684;9.758;2023-09-07T10:38:32;102034.75;;;29.19;44.15
5651;BME280;40241;52.684;9.758;2023-09-07T10:40:59;102034.19;;;29.30;43.97
5651;BME280;40241;52.684;9.758;2023-09-07T10:43:26;102037.81;;;29.40;43.81
5651;BME280;40241;52.684;9.758;2023-09-07T10:45:53;102042.59;;;29.47;43.82
5651;BME280;40241;52.684;9.758;2023-09-07T10:48:18;102036.81;;;29.54;43.77
5651;BME280;40241;52.684;9.758;2023-09-07T10:50:46;102033.66;;;29.60;43.20
5651;BME280;40241;52.684;9.758;2023-09-07T10:53:12;102035.03;;;29.68;43.13
5651;BME280;40241;52.684;9.758;2023-09-07T10:55:40;102030.31;;;29.81;43.18
5651;BME280;40241;52.684;9.758;2023-09-07T10:58:06;102026.13;;;29.91;42.66
5651;BME280;40241;52.684;9.758;2023-09-07T11:00:31;102032.25;;;29.97;42.97
5651;BME280;40241;52.684;9.758;2023-09-07T11:02:56;102024.34;;;30.05;42.38
5651;BME280;40241;52.684;9.758;2023-09-07T11:05:22;102021.19;;;30.11;42.09
5651;BME280;40241;52.684;9.758;2023-09-07T11:07:47;102021.63;;;30.17;42.17
5651;BME280;40241;52.684;9.758;2023-09-07T11:10:13;102021.19;;;30.20;42.37
5651;BME280;40241;52.684;9.758;2023-09-07T11:12:39;102012.34;;;30.26;42.20
5651;BME280;40241;52.684;9.758;2023-09-07T11:15:08;102011.91;;;30.29;41.88
5651;BME280;40241;52.684;9.758;2023-09-07T11:17:37;102001.91;;;30.38;42.04
5651;BME280;40241;52.684;9.758;2023-09-07T11:20:04;102012.47;;;30.47;41.65
5651;BME280;40241;52.684;9.758;2023-09-07T11:22:33;102000.63;;;30.60;41.87
5651;BME280;40241;52.684;9.758;2023-09-07T11:25:01;102006.00;;;30.75;40.96
5651;BME280;40241;52.684;9.758;2023-09-07T11:27:30;102003.84;;;30.85;40.75
5651;BME280;40241;52.684;9.758;2023-09-07T11:29:56;102004.44;;;30.93;40.81
5651;BME280;40241;52.684;9.758;2023-09-07T11:32:23;101999.34;;;31.01;41.01
5651;BME280;40241;52.684;9.758;2023-09-07T11:34:52;101994.06;;;31.07;40.93
5651;BME280;40241;52.684;9.758;2023-09-07T11:37:23;102003.13;;;31.16;40.34
5651;BME280;40241;52.684;9.758;2023-09-07T11:39:49;101991.22;;;31.29;40.71
5651;BME280;40241;52.684;9.758;2023-09-07T11:42:14;101994.63;;;31.37;39.96
5651;BME280;40241;52.684;9.758;2023-09-07T11:44:39;101993.84;;;31.46;40.13
5651;BME280;40241;52.684;9.758;2023-09-07T11:47:05;101988.41;;;31.50;39.87
5651;BME280;40241;52.684;9.758;2023-09-07T11:49:32;101989.50;;;31.66;39.64
5651;BME280;40241;52.684;9.758;2023-09-07T11:51:58;101975.94;;;31.76;39.16
5651;BME280;40241;52.684;9.758;2023-09-07T11:54:23;101985.91;;;31.87;39.03
5651;BME280;40241;52.684;9.758;2023-09-07T11:56:48;101983.88;;;31.99;39.00
5651;BME280;40241;52.684;9.758;2023-09-07T11:59:14;101985.53;;;32.13;39.03
5651;BME280;40241;52.684;9.758;2023-09-07T12:01:41;101985.34;;;32.32;38.62
5651;BME280;40241;52.684;9.758;2023-09-07T12:04:06;101978.09;;;32.52;38.63
5651;BME280;40241;52.684;9.758;2023-09-07T12:06:32;101974.38;;;32.62;37.92
5651;BME280;40241;52.684;9.758;2023-09-07T12:09:02;101969.31;;;32.72;38.00
5651;BME280;40241;52.684;9.758;2023-09-07T12:11:28;101968.19;;;32.77;37.85
5651;BME280;40241;52.684;9.758;2023-09-07T12:13:53;101970.19;;;32.86;37.81
5651;BME280;40241;52.684;9.758;2023-09-07T12:16:18;101970.31;;;32.99;37.63
5651;BME280;40241;52.684;9.758;2023-09-07T12:18:44;101972.16;;;33.18;37.84
5651;BME280;40241;52.684;9.758;2023-09-07T12:21:09;101959.50;;;33.21;37.48
5651;BME280;40241;52.684;9.758;2023-09-07T12:23:34;101965.72;;;33.17;37.44
5651;BME280;40241;52.684;9.758;2023-09-07T12:26:01;101964.09;;;33.26;37.64
5651;BME280;40241;52.684;9.758;2023-09-07T12:28:26;101964.81;;;33.38;36.89
5651;BME280;40241;52.684;9.758;2023-09-07T12:30:52;101966.13;;;33.49;36.96
5651;BME280;40241;52.684;9.758;2023-09-07T12:33:17;101960.41;;;33.60;36.63
5651;BME280;40241;52.684;9.758;2023-09-07T12:35:42;101960.28;;;33.70;36.28
5651;BME280;40241;52.684;9.758;2023-09-07T12:38:08;101959.88;;;33.75;36.30
5651;BME280;40241;52.684;9.758;2023-09-07T12:40:35;101953.66;;;33.79;36.43
5651;BME280;40241;52.684;9.758;2023-09-07T12:43:01;101952.00;;;33.87;35.93
5651;BME280;40241;52.684;9.758;2023-09-07T12:45:27;101947.97;;;33.92;35.98
5651;BME280;40241;52.684;9.758;2023-09-07T12:47:52;101940.69;;;33.89;36.33
5651;BME280;40241;52.684;9.758;2023-09-07T12:50:18;101939.19;;;33.88;36.22
5651;BME280;40241;52.684;9.758;2023-09-07T12:52:43;101935.25;;;33.82;35.61
5651;BME280;40241;52.684;9.758;2023-09-07T12:55:08;101934.38;;;33.79;35.35